Airport View

Enter AWOS ICAO identifier for current METAR.

ex. KFNL

PAMM 211156Z AUTO 16011G27KT 5SM RA BR OVC007 14/13 A2964 RMK AO2 PK WND 16028/1108 CIG 006V011 SLP027 P0027 60107 70196 T01390133 10144 20139 58021 $

21 Sep 2019 23:37

Frequency: 135.55

Other Area AWOS: PANT - PAKT - PAHY - CWEK

TAF PAKT 211740Z 2118/2218 12012G20KT 4SM -SHRA BR SCT007 BKN015 OVC035 FM220600 12005KT 6SM -SHRA BR SCT015 BKN025 OVC050 AMD LTD TO CLD VIS AND WIND 2206/2215